Главная страница
METAR-TAF:

METAR-TAF

Аэропорты :

Гаррисберг, Пенсильвания, США

широта: 40-13-02N, долгота: 076-51-05W, высота над уровнем моря: 106 м

Текущие метеонаблюдения

Эта сводка был подготовлена 8 часа и 46 минут назад, в 04:56 UTC
Ветер 9 Узел от юго-восточный
Температура 23°C
Влажность 73%
Давление 1019 hPa
Видимость: 16.1 км
небольшая облачность на высоте 2700 фута
Рассеянная облачность на высоте 3900 фута
Сплошная облачность на высоте 7500 фута

METAR: KCXY 210456Z AUTO 13009KT 10SM FEW027 BKN039 OVC075 23/18 A3010 RMK AO2 SLP191 T02330183 402610200 TSNO

Время: 09:42 (13:42 UTC)


TAF: отсутствует

Метеонаблюдения и прогнозы для более 4000 аэропортов (сводки METAR и TAF).

Имеющиеся станции представлены на карте желтыми и красными точками.

Чтобы увидеть название станции, наведите на нее мышь.

Затем щелкните, чтобы увидеть метеонаблюдения и метеопрогнозы.

Управление картой: чтобы увеличить масштаб, щелкните зеленые кнопки с черным крестиком; чтобы уменьшить масштаб, щелкните зеленую кнопку с тире; для просмотра соседних карт щелкайте зеленые стрелки.


METAR-TAF: